createdAt,value
2018-05-21T00:01:07.648Z,16.90
2018-05-21T00:03:35.132Z,16.80
2018-05-21T00:06:03.363Z,16.90
2018-05-21T00:08:30.824Z,16.80
2018-05-21T00:10:58.312Z,16.80
2018-05-21T00:13:25.783Z,16.90
2018-05-21T00:15:54.776Z,16.80
2018-05-21T00:18:23.005Z,16.80
2018-05-21T00:20:50.497Z,16.80
2018-05-21T00:23:17.968Z,16.80
2018-05-21T00:25:46.215Z,16.80
2018-05-21T00:28:13.683Z,16.80
2018-05-21T00:30:41.164Z,16.70
2018-05-21T00:33:08.629Z,16.70
2018-05-21T00:35:36.880Z,16.80
2018-05-21T00:38:04.356Z,16.80
2018-05-21T00:40:32.595Z,16.70
2018-05-21T00:43:00.080Z,16.70
2018-05-21T00:45:27.547Z,16.70
2018-05-21T00:47:55.801Z,16.80
2018-05-21T00:50:23.305Z,16.80
2018-05-21T00:52:51.541Z,16.80
2018-05-21T00:55:30.904Z,16.70
2018-05-21T00:57:59.153Z,16.90
2018-05-21T01:00:26.628Z,16.80
2018-05-21T01:02:54.181Z,16.90
2018-05-21T01:05:21.576Z,16.90
2018-05-21T01:07:49.056Z,16.90
2018-05-21T01:10:16.519Z,16.90
2018-05-21T01:12:44.016Z,16.90
2018-05-21T01:15:11.484Z,16.90
2018-05-21T01:17:39.737Z,16.90
2018-05-21T01:20:07.212Z,16.90
2018-05-21T01:22:35.471Z,16.90
2018-05-21T01:25:02.954Z,16.90
2018-05-21T01:27:31.190Z,16.90
2018-05-21T01:29:58.673Z,16.90
2018-05-21T01:32:26.139Z,16.90
2018-05-21T01:34:53.615Z,16.90
2018-05-21T01:37:21.847Z,16.90
2018-05-21T01:39:49.330Z,16.90
2018-05-21T01:42:17.608Z,16.90
2018-05-21T01:44:45.091Z,16.90
2018-05-21T01:47:12.556Z,17.00
2018-05-21T01:49:40.078Z,17.00
2018-05-21T01:52:07.564Z,17.00
2018-05-21T01:54:35.820Z,17.00
2018-05-21T01:57:04.048Z,16.90
2018-05-21T01:59:31.544Z,16.90
2018-05-21T02:01:59.008Z,16.90
2018-05-21T02:04:28.004Z,16.80
2018-05-21T02:06:56.250Z,16.80
2018-05-21T02:09:23.723Z,16.80
2018-05-21T02:11:51.217Z,16.80
2018-05-21T02:14:19.456Z,16.70
2018-05-21T02:16:46.936Z,16.60
2018-05-21T02:19:15.170Z,16.60
2018-05-21T02:21:42.665Z,16.60
2018-05-21T02:24:10.133Z,16.60
2018-05-21T02:26:38.379Z,16.60
2018-05-21T02:29:05.846Z,16.50
2018-05-21T02:31:33.328Z,16.50
2018-05-21T02:34:01.575Z,16.40
2018-05-21T02:36:29.053Z,16.40
2018-05-21T02:38:57.372Z,16.40
2018-05-21T02:41:24.860Z,16.40
2018-05-21T02:43:52.339Z,16.40
2018-05-21T02:46:19.871Z,16.40
2018-05-21T02:48:47.339Z,16.50
2018-05-21T02:51:14.832Z,16.50
2018-05-21T02:53:43.076Z,16.50
2018-05-21T02:56:10.551Z,16.50
2018-05-21T02:58:38.028Z,16.50
2018-05-21T03:01:06.263Z,16.50
2018-05-21T03:03:33.746Z,16.50
2018-05-21T03:06:01.988Z,16.50
2018-05-21T03:08:29.461Z,16.40
2018-05-21T03:10:56.923Z,16.50
2018-05-21T03:13:24.404Z,16.50
2018-05-21T03:15:52.641Z,16.40
2018-05-21T03:18:20.125Z,16.40
2018-05-21T03:20:49.110Z,16.40
2018-05-21T03:23:16.593Z,16.40
2018-05-21T03:25:44.831Z,16.40
2018-05-21T03:28:12.320Z,16.40
2018-05-21T03:30:40.560Z,16.40
2018-05-21T03:33:08.044Z,16.40
2018-05-21T03:35:35.514Z,16.50
2018-05-21T03:38:03.752Z,16.50
2018-05-21T03:40:31.228Z,16.50
2018-05-21T03:42:58.723Z,16.60
2018-05-21T03:45:26.960Z,16.70
2018-05-21T03:47:54.422Z,16.70
2018-05-21T03:50:21.899Z,16.70
2018-05-21T03:52:50.151Z,16.80
2018-05-21T03:55:17.628Z,16.80
2018-05-21T03:57:45.092Z,16.80
2018-05-21T04:00:25.284Z,16.90
2018-05-21T04:03:04.831Z,16.90
2018-05-21T04:05:32.308Z,17.00
2018-05-21T09:18:16.116Z,22.10
2018-05-21T09:20:43.609Z,22.20
2018-05-21T09:23:11.841Z,22.30
2018-05-21T09:25:39.319Z,22.30
2018-05-21T09:28:06.800Z,22.40
2018-05-21T09:30:35.048Z,22.50
2018-05-21T09:33:02.565Z,22.50
2018-05-21T09:35:30.048Z,22.50
2018-05-21T09:37:57.515Z,22.60
2018-05-21T09:40:24.990Z,22.80
2018-05-21T09:42:52.487Z,22.90
2018-05-21T09:45:19.989Z,22.90
2018-05-21T09:47:47.460Z,22.80
2018-05-21T09:50:16.487Z,23.00
2018-05-21T09:52:43.964Z,23.00
2018-05-21T09:55:11.466Z,23.20
2018-05-21T09:57:38.959Z,23.20
2018-05-21T10:00:06.456Z,23.40
2018-05-21T10:02:33.956Z,23.40
2018-05-21T10:05:02.216Z,23.60
2018-05-21T10:07:29.711Z,23.60
2018-05-21T10:09:57.177Z,23.70
2018-05-21T10:12:24.664Z,23.80
2018-05-21T10:14:52.124Z,23.80
2018-05-21T10:17:19.616Z,23.90
2018-05-21T10:19:47.078Z,24.10
2018-05-21T10:22:14.560Z,24.40
2018-05-21T10:24:42.056Z,24.80
2018-05-21T10:27:09.563Z,24.90
2018-05-21T10:29:37.813Z,25.00
2018-05-21T10:32:05.304Z,25.00
2018-05-21T10:34:33.553Z,25.00
2018-05-21T10:37:01.118Z,25.00
2018-05-21T10:39:28.565Z,24.90
2018-05-21T10:41:56.044Z,24.80
2018-05-21T10:44:24.332Z,25.00
2018-05-21T10:46:52.576Z,25.30
2018-05-21T10:49:20.078Z,25.20
2018-05-21T10:51:47.540Z,25.30
2018-05-21T10:54:15.021Z,25.30
2018-05-21T10:56:42.483Z,25.40
2018-05-21T10:59:09.980Z,25.40
2018-05-21T11:01:37.459Z,25.50
2018-05-21T11:04:04.956Z,25.70
2018-05-21T11:06:32.441Z,25.70
2018-05-21T11:08:59.928Z,25.70
2018-05-21T11:11:28.174Z,25.90
2018-05-21T11:13:55.659Z,25.90
2018-05-21T11:16:23.918Z,26.10
2018-05-21T11:18:51.395Z,26.10
2018-05-21T11:21:19.672Z,26.20
2018-05-21T11:23:47.907Z,26.00
2018-05-21T11:26:15.408Z,26.00
2018-05-21T11:28:43.647Z,26.00
2018-05-21T11:31:11.132Z,26.00
2018-05-21T11:33:38.604Z,26.10
2018-05-21T11:36:06.913Z,26.20
2018-05-21T11:38:34.364Z,26.20
2018-05-21T11:41:01.861Z,26.30
2018-05-21T11:43:29.350Z,26.10
2018-05-21T11:45:57.595Z,25.50
2018-05-21T11:48:25.069Z,25.50
2018-05-21T11:50:52.552Z,25.50
2018-05-21T11:53:20.782Z,25.90
2018-05-21T11:55:48.287Z,25.90
2018-05-21T11:58:16.532Z,26.00
2018-05-21T12:00:44.024Z,26.00
2018-05-21T12:03:12.276Z,26.50
2018-05-21T12:05:39.758Z,26.50
2018-05-21T12:08:07.991Z,26.90
2018-05-21T12:10:35.480Z,26.80
2018-05-21T12:13:03.713Z,27.50
2018-05-21T12:15:31.203Z,27.50
2018-05-21T12:17:58.692Z,27.70
2018-05-21T12:20:26.161Z,27.90
2018-05-21T12:22:53.649Z,27.90
2018-05-21T12:25:21.129Z,27.80
2018-05-21T12:27:48.625Z,27.70
2018-05-21T12:30:16.117Z,27.60
2018-05-21T12:32:43.600Z,27.50
2018-05-21T12:35:11.068Z,27.70
2018-05-21T12:37:38.552Z,28.00
2018-05-21T12:40:06.028Z,28.10
2018-05-21T12:42:33.549Z,28.00
2018-05-21T12:45:01.792Z,27.80
2018-05-21T12:47:29.282Z,27.70
2018-05-21T12:49:57.540Z,28.00
2018-05-21T12:52:25.018Z,28.00
2018-05-21T12:54:52.488Z,28.40
2018-05-21T12:57:20.728Z,28.60
2018-05-21T12:59:48.207Z,28.60
2018-05-21T13:02:15.679Z,28.90
2018-05-21T13:04:43.942Z,29.50
2018-05-21T13:07:11.413Z,29.50
2018-05-21T13:09:39.651Z,30.40
2018-05-21T13:12:07.191Z,30.40
2018-05-21T13:14:34.713Z,30.50
2018-05-21T13:17:02.207Z,30.60
2018-05-21T13:19:29.687Z,30.30
2018-05-21T13:21:57.184Z,29.80
2018-05-21T13:24:25.468Z,29.40
2018-05-21T13:26:52.957Z,29.40
2018-05-21T13:29:20.515Z,29.50
2018-05-21T13:31:48.005Z,29.70
2018-05-21T13:34:15.488Z,29.80
2018-05-21T13:36:43.792Z,30.00
2018-05-21T13:39:11.292Z,30.00
2018-05-21T13:41:38.872Z,30.30
2018-05-21T13:44:06.352Z,30.00
2018-05-21T13:46:34.624Z,30.70
2018-05-21T13:49:02.879Z,30.90
2018-05-21T13:51:31.156Z,31.50
2018-05-21T13:53:58.647Z,31.40
2018-05-21T13:56:26.156Z,31.50
2018-05-21T13:58:53.643Z,31.10
2018-05-21T14:01:21.119Z,30.80
2018-05-21T14:03:49.364Z,29.60
2018-05-21T14:06:16.884Z,29.50
2018-05-21T14:08:44.353Z,29.50
2018-05-21T14:11:11.856Z,29.50
2018-05-21T14:13:39.332Z,29.60
2018-05-21T14:16:07.587Z,29.50
2018-05-21T14:18:35.056Z,29.50
2018-05-21T14:21:03.314Z,29.20
2018-05-21T14:23:30.784Z,29.20
2018-05-21T14:25:58.247Z,29.10
2018-05-21T14:28:26.532Z,29.00
2018-05-21T14:30:54.791Z,28.90
2018-05-21T14:33:22.267Z,28.90
2018-05-21T14:35:50.500Z,28.90
2018-05-21T14:38:17.988Z,28.80
2018-05-21T14:40:45.456Z,28.60
2018-05-21T14:43:13.710Z,28.40
2018-05-21T14:45:41.206Z,28.40
2018-05-21T14:48:08.696Z,28.40
2018-05-21T14:50:36.200Z,28.30
2018-05-21T14:53:04.522Z,28.00
2018-05-21T14:55:32.004Z,28.00
2018-05-21T14:57:59.500Z,27.90
2018-05-21T15:00:27.743Z,27.90
2018-05-21T15:02:55.224Z,27.90
2018-05-21T15:05:22.713Z,28.00
2018-05-21T15:07:50.189Z,28.00
2018-05-21T15:10:17.684Z,27.80
2018-05-21T15:12:45.152Z,27.70
2018-05-21T15:15:12.652Z,27.80
2018-05-21T15:17:40.141Z,27.90
2018-05-21T15:20:07.649Z,27.90
2018-05-21T15:22:35.888Z,27.70
2018-05-21T15:25:03.373Z,27.80
2018-05-21T15:27:31.633Z,27.70
2018-05-21T15:29:59.113Z,27.70
2018-05-21T15:32:27.356Z,27.60
2018-05-21T15:34:54.840Z,27.50
2018-05-21T15:37:22.347Z,27.60
2018-05-21T15:39:49.854Z,27.50
2018-05-21T15:42:17.321Z,27.40
2018-05-21T15:44:45.556Z,27.20
2018-05-21T15:47:13.040Z,27.20
2018-05-21T15:49:40.516Z,27.10
2018-05-21T15:52:08.764Z,27.00
2018-05-21T15:54:36.243Z,27.00
2018-05-21T15:57:04.562Z,26.80
2018-05-21T15:59:32.036Z,26.80
2018-05-21T16:01:59.527Z,26.80
2018-05-21T16:04:27.000Z,26.70
2018-05-21T16:06:55.255Z,26.60
2018-05-21T16:09:22.728Z,26.70
2018-05-21T16:11:50.210Z,26.60
2018-05-21T16:14:18.448Z,26.50
2018-05-21T16:16:45.933Z,26.50
2018-05-21T16:19:14.164Z,26.60
2018-05-21T16:21:41.654Z,26.50
2018-05-21T16:24:09.134Z,26.60
2018-05-21T16:26:37.368Z,26.50
2018-05-21T16:29:04.844Z,26.50
2018-05-21T16:31:32.465Z,26.60
2018-05-21T16:33:59.950Z,26.60
2018-05-21T16:36:27.412Z,26.60
2018-05-21T16:38:54.911Z,26.60
2018-05-21T16:41:22.435Z,26.60
2018-05-21T16:43:49.924Z,26.70
2018-05-21T16:46:18.163Z,26.90
2018-05-21T16:48:45.682Z,26.90
2018-05-21T16:51:13.172Z,26.90
2018-05-21T16:53:40.654Z,27.00
2018-05-21T16:56:08.156Z,26.90
2018-05-21T16:58:35.641Z,26.90
2018-05-21T17:01:03.117Z,26.80
2018-05-21T17:03:30.628Z,26.60
2018-05-21T17:05:58.113Z,26.60
2018-05-21T17:08:25.575Z,26.50
2018-05-21T17:10:53.128Z,26.40
2018-05-21T17:13:20.603Z,26.40
2018-05-21T17:15:48.096Z,26.30
2018-05-21T17:18:16.352Z,26.30
2018-05-21T17:20:43.832Z,26.30
2018-05-21T17:23:12.080Z,26.10
2018-05-21T17:25:39.594Z,26.10
2018-05-21T17:28:07.055Z,26.10
2018-05-21T17:30:34.540Z,26.10
2018-05-21T17:33:02.013Z,26.10
2018-05-21T17:35:29.615Z,26.00
2018-05-21T17:37:56.988Z,26.00
2018-05-21T17:40:24.479Z,25.90
2018-05-21T17:42:51.958Z,25.80
2018-05-21T17:45:19.456Z,25.80
2018-05-21T17:47:46.931Z,25.80
2018-05-21T17:50:14.482Z,25.70
2018-05-21T17:52:41.972Z,25.70
2018-05-21T17:55:09.436Z,25.70
2018-05-21T17:57:36.974Z,25.60
2018-05-21T18:00:04.543Z,25.50
2018-05-21T18:02:31.949Z,25.50
2018-05-21T18:04:59.436Z,25.40
2018-05-21T18:07:26.924Z,25.40
2018-05-21T18:09:54.410Z,25.30
2018-05-21T18:12:22.663Z,25.10
2018-05-21T18:14:50.152Z,25.10
2018-05-21T18:17:18.420Z,25.00
2018-05-21T18:19:46.659Z,24.90
2018-05-21T18:22:14.147Z,24.90
2018-05-21T18:24:41.624Z,24.90
2018-05-21T18:27:09.883Z,24.80
2018-05-21T18:29:38.142Z,24.70
2018-05-21T18:32:05.612Z,24.70
2018-05-21T18:34:33.095Z,24.70
2018-05-21T18:37:01.369Z,24.60
2018-05-21T18:39:29.628Z,24.50
2018-05-21T18:41:57.134Z,24.50
2018-05-21T18:44:24.672Z,24.50
2018-05-21T18:46:52.891Z,24.40
2018-05-21T18:49:20.387Z,24.40
2018-05-21T18:51:48.637Z,24.40
2018-05-21T18:54:16.144Z,24.40
2018-05-21T18:56:44.388Z,24.30
2018-05-21T18:59:11.867Z,24.30
2018-05-21T19:01:40.144Z,24.30
2018-05-21T19:04:08.384Z,24.30
2018-05-21T19:06:35.875Z,24.20
2018-05-21T19:09:04.160Z,24.20
2018-05-21T19:11:32.394Z,24.20
2018-05-21T19:13:59.885Z,24.20
2018-05-21T19:16:28.160Z,24.20
2018-05-21T19:18:56.411Z,24.10
2018-05-21T19:21:23.891Z,24.10
2018-05-21T19:23:51.366Z,24.10
2018-05-21T19:26:19.617Z,24.10
2018-05-21T19:28:47.086Z,24.10
2018-05-21T19:31:15.351Z,24.10
2018-05-21T19:33:42.831Z,24.10
2018-05-21T19:36:11.119Z,24.00
2018-05-21T19:38:38.594Z,24.00
2018-05-21T19:41:06.136Z,23.90
2018-05-21T19:43:34.370Z,23.80
2018-05-21T19:46:01.861Z,23.80
2018-05-21T19:48:30.111Z,23.80
2018-05-21T19:50:58.376Z,23.70
2018-05-21T19:53:25.839Z,23.70
2018-05-21T19:55:53.667Z,23.70
2018-05-21T19:58:21.164Z,23.70
2018-05-21T20:00:48.715Z,23.60
2018-05-21T20:03:16.229Z,23.60
2018-05-21T20:05:44.460Z,23.60
2018-05-21T20:08:11.980Z,23.50
2018-05-21T20:10:39.456Z,23.50
2018-05-21T20:13:07.012Z,23.50
2018-05-21T20:15:34.529Z,23.50
2018-05-21T20:18:02.798Z,23.40
2018-05-21T20:20:41.883Z,23.40
2018-05-21T20:23:09.375Z,23.40
2018-05-21T20:25:36.832Z,23.40
2018-05-21T20:28:04.343Z,23.40
2018-05-21T20:30:31.832Z,23.40
2018-05-21T20:32:59.319Z,23.30
2018-05-21T20:35:27.574Z,23.30
2018-05-21T20:37:55.062Z,23.20
2018-05-21T20:40:23.313Z,23.20
2018-05-21T20:42:50.804Z,23.20
2018-05-21T20:45:18.375Z,23.20
2018-05-21T20:47:45.761Z,23.10
2018-05-21T20:50:13.258Z,23.10
2018-05-21T20:52:40.723Z,23.00
2018-05-21T20:55:08.978Z,22.90
2018-05-21T20:57:36.466Z,22.90
2018-05-21T21:00:04.794Z,22.80
2018-05-21T21:02:32.292Z,22.80
2018-05-21T21:05:00.584Z,22.70
2018-05-21T21:07:28.814Z,22.60
2018-05-21T21:09:56.304Z,22.60
2018-05-21T21:12:23.787Z,22.60
2018-05-21T21:14:51.289Z,22.60
2018-05-21T21:17:18.795Z,22.50
2018-05-21T21:19:47.043Z,22.40
2018-05-21T21:22:14.611Z,22.40
2018-05-21T21:24:42.093Z,22.30
2018-05-21T21:27:10.354Z,22.20
2018-05-21T21:29:38.593Z,22.20
2018-05-21T21:32:06.075Z,22.20
2018-05-21T21:34:33.554Z,22.10
2018-05-21T21:37:01.821Z,22.00
2018-05-21T21:39:30.083Z,22.00
2018-05-21T21:41:57.593Z,22.00
2018-05-21T21:44:25.067Z,22.00
2018-05-21T21:46:52.550Z,21.90
2018-05-21T21:49:20.034Z,21.90
2018-05-21T21:51:48.287Z,21.80
2018-05-21T21:54:15.756Z,21.80
2018-05-21T21:56:43.244Z,21.70
2018-05-21T21:59:11.475Z,21.70
2018-05-21T22:01:38.973Z,21.70
2018-05-21T22:04:07.252Z,21.60
2018-05-21T22:06:35.512Z,21.50
2018-05-21T22:09:03.756Z,21.50
2018-05-21T22:11:31.248Z,21.50
2018-05-21T22:13:59.487Z,21.40
2018-05-21T22:16:26.961Z,21.40
2018-05-21T22:18:54.443Z,21.30
2018-05-21T22:21:22.681Z,21.20
2018-05-21T22:23:50.169Z,21.20
2018-05-21T22:26:18.412Z,21.10
2018-05-21T22:28:45.903Z,21.10
2018-05-21T22:31:13.383Z,21.10
2018-05-21T22:33:41.648Z,20.90
2018-05-21T22:36:09.883Z,20.90
2018-05-21T22:38:37.364Z,20.90
2018-05-21T22:41:04.832Z,20.80
2018-05-21T22:43:32.312Z,20.90
2018-05-21T22:46:00.550Z,20.80
2018-05-21T22:48:28.029Z,20.80
2018-05-21T22:50:56.284Z,20.70
2018-05-21T22:53:23.778Z,20.70
2018-05-21T22:55:52.012Z,20.70
2018-05-21T22:58:19.491Z,20.60
2018-05-21T23:00:46.972Z,20.70
2018-05-21T23:03:15.208Z,20.70
2018-05-21T23:05:43.472Z,20.70
2018-05-21T23:08:10.953Z,20.70
2018-05-21T23:10:39.204Z,20.80
2018-05-21T23:13:06.683Z,20.70
2018-05-21T23:15:34.200Z,20.80
2018-05-21T23:18:01.699Z,20.80
2018-05-21T23:20:29.175Z,20.80
2018-05-21T23:22:56.648Z,20.80
2018-05-21T23:25:24.908Z,20.80
2018-05-21T23:27:52.367Z,20.80
2018-05-21T23:30:20.620Z,20.80
2018-05-21T23:32:48.101Z,20.80
2018-05-21T23:35:15.600Z,20.80
2018-05-21T23:37:43.073Z,20.70
2018-05-21T23:40:10.547Z,20.70
2018-05-21T23:42:38.024Z,20.60
2018-05-21T23:45:05.496Z,20.60
2018-05-21T23:47:33.744Z,20.30
2018-05-21T23:50:01.211Z,20.30
2018-05-21T23:52:28.699Z,20.20
2018-05-21T23:54:56.926Z,19.90
2018-05-21T23:57:24.408Z,20.00
2018-05-21T23:59:51.873Z,19.90
